sensor_id;sensor_type;location;lat;lon;timestamp;P1;durP1;ratioP1;P2;durP2;ratioP2
72161;SDS011;60047;51.644;5.842;2022-12-07T00:00:55;6.8;;;3.4;;
72161;SDS011;60047;51.644;5.842;2022-12-07T00:05:56;5.6;;;2.9;;
72161;SDS011;60047;51.644;5.842;2022-12-07T00:10:59;7.0;;;3.4;;
72161;SDS011;60047;51.644;5.842;2022-12-07T00:15:55;7.9;;;3.0;;
72161;SDS011;60047;51.644;5.842;2022-12-07T00:20:58;7.0;;;3.1;;
72161;SDS011;60047;51.644;5.842;2022-12-07T00:25:55;6.8;;;3.3;;
72161;SDS011;60047;51.644;5.842;2022-12-07T00:30:59;5.7;;;2.5;;
72161;SDS011;60047;51.644;5.842;2022-12-07T00:35:56;7.3;;;3.0;;
72161;SDS011;60047;51.644;5.842;2022-12-07T00:40:56;5.7;;;2.8;;
72161;SDS011;60047;51.644;5.842;2022-12-07T00:45:56;6.4;;;2.9;;
72161;SDS011;60047;51.644;5.842;2022-12-07T00:50:56;6.0;;;2.8;;
72161;SDS011;60047;51.644;5.842;2022-12-07T00:55:56;7.2;;;3.3;;
72161;SDS011;60047;51.644;5.842;2022-12-07T01:00:59;5.8;;;2.6;;
72161;SDS011;60047;51.644;5.842;2022-12-07T01:05:56;6.6;;;2.8;;
72161;SDS011;60047;51.644;5.842;2022-12-07T01:10:58;7.2;;;3.1;;
72161;SDS011;60047;51.644;5.842;2022-12-07T01:15:57;6.3;;;2.9;;
72161;SDS011;60047;51.644;5.842;2022-12-07T01:20:57;6.2;;;3.0;;
72161;SDS011;60047;51.644;5.842;2022-12-07T01:25:56;6.3;;;2.6;;
72161;SDS011;60047;51.644;5.842;2022-12-07T01:30:56;6.4;;;2.9;;
72161;SDS011;60047;51.644;5.842;2022-12-07T01:36:00;6.5;;;2.6;;
72161;SDS011;60047;51.644;5.842;2022-12-07T01:40:56;7.0;;;2.9;;
72161;SDS011;60047;51.644;5.842;2022-12-07T01:45:56;5.8;;;2.6;;
72161;SDS011;60047;51.644;5.842;2022-12-07T01:50:56;4.5;;;2.4;;
72161;SDS011;60047;51.644;5.842;2022-12-07T01:55:56;6.5;;;2.8;;
72161;SDS011;60047;51.644;5.842;2022-12-07T02:00:56;4.5;;;2.5;;
72161;SDS011;60047;51.644;5.842;2022-12-07T02:05:56;6.0;;;2.7;;
72161;SDS011;60047;51.644;5.842;2022-12-07T02:10:56;5.4;;;2.4;;
72161;SDS011;60047;51.644;5.842;2022-12-07T02:16:14;4.8;;;2.4;;
72161;SDS011;60047;51.644;5.842;2022-12-07T02:21:30;5.7;;;2.5;;
72161;SDS011;60047;51.644;5.842;2022-12-07T02:27:26;6.3;;;2.9;;
72161;SDS011;60047;51.644;5.842;2022-12-07T02:30:57;4.6;;;2.3;;
72161;SDS011;60047;51.644;5.842;2022-12-07T02:35:57;4.5;;;2.5;;
72161;SDS011;60047;51.644;5.842;2022-12-07T02:40:57;4.0;;;2.2;;
72161;SDS011;60047;51.644;5.842;2022-12-07T02:45:57;4.7;;;2.0;;
72161;SDS011;60047;51.644;5.842;2022-12-07T02:50:56;5.3;;;2.6;;
72161;SDS011;60047;51.644;5.842;2022-12-07T02:55:56;5.4;;;2.7;;
72161;SDS011;60047;51.644;5.842;2022-12-07T03:01:20;5.4;;;2.5;;
72161;SDS011;60047;51.644;5.842;2022-12-07T03:06:08;3.8;;;2.0;;
72161;SDS011;60047;51.644;5.842;2022-12-07T03:11:05;4.9;;;2.3;;
72161;SDS011;60047;51.644;5.842;2022-12-07T03:15:57;4.1;;;2.2;;
72161;SDS011;60047;51.644;5.842;2022-12-07T03:20:57;4.4;;;2.2;;
72161;SDS011;60047;51.644;5.842;2022-12-07T03:25:56;4.9;;;2.1;;
72161;SDS011;60047;51.644;5.842;2022-12-07T03:31:03;5.1;;;2.2;;
72161;SDS011;60047;51.644;5.842;2022-12-07T03:35:57;4.6;;;2.3;;
72161;SDS011;60047;51.644;5.842;2022-12-07T03:41:05;4.4;;;2.2;;
72161;SDS011;60047;51.644;5.842;2022-12-07T03:46:00;4.2;;;2.2;;
72161;SDS011;60047;51.644;5.842;2022-12-07T03:50:58;3.6;;;1.9;;
72161;SDS011;60047;51.644;5.842;2022-12-07T03:55:56;5.2;;;2.2;;
72161;SDS011;60047;51.644;5.842;2022-12-07T04:00:56;3.9;;;1.9;;
72161;SDS011;60047;51.644;5.842;2022-12-07T04:05:56;4.6;;;2.1;;
72161;SDS011;60047;51.644;5.842;2022-12-07T04:10:56;4.2;;;2.1;;
72161;SDS011;60047;51.644;5.842;2022-12-07T04:15:56;4.1;;;1.9;;
72161;SDS011;60047;51.644;5.842;2022-12-07T04:20:56;3.4;;;1.8;;
72161;SDS011;60047;51.644;5.842;2022-12-07T04:25:56;4.7;;;2.2;;
72161;SDS011;60047;51.644;5.842;2022-12-07T04:30:56;4.5;;;2.2;;
72161;SDS011;60047;51.644;5.842;2022-12-07T04:35:56;3.6;;;1.9;;
72161;SDS011;60047;51.644;5.842;2022-12-07T04:40:56;3.8;;;1.9;;
72161;SDS011;60047;51.644;5.842;2022-12-07T04:45:56;4.7;;;2.3;;
72161;SDS011;60047;51.644;5.842;2022-12-07T04:50:56;3.0;;;1.7;;
72161;SDS011;60047;51.644;5.842;2022-12-07T04:55:56;4.0;;;2.0;;
72161;SDS011;60047;51.644;5.842;2022-12-07T05:00:56;3.5;;;1.9;;
72161;SDS011;60047;51.644;5.842;2022-12-07T05:05:56;3.5;;;2.0;;
72161;SDS011;60047;51.644;5.842;2022-12-07T05:10:56;4.1;;;1.7;;
72161;SDS011;60047;51.644;5.842;2022-12-07T05:15:56;3.3;;;1.7;;
72161;SDS011;60047;51.644;5.842;2022-12-07T05:20:56;3.1;;;1.6;;
72161;SDS011;60047;51.644;5.842;2022-12-07T05:25:56;3.0;;;2.0;;
72161;SDS011;60047;51.644;5.842;2022-12-07T05:30:56;3.6;;;2.0;;
72161;SDS011;60047;51.644;5.842;2022-12-07T05:35:56;3.1;;;1.7;;
72161;SDS011;60047;51.644;5.842;2022-12-07T05:40:59;3.6;;;1.6;;
72161;SDS011;60047;51.644;5.842;2022-12-07T05:45:56;3.5;;;1.7;;
72161;SDS011;60047;51.644;5.842;2022-12-07T05:50:56;2.8;;;1.5;;
72161;SDS011;60047;51.644;5.842;2022-12-07T05:55:56;3.1;;;1.6;;
72161;SDS011;60047;51.644;5.842;2022-12-07T06:00:57;4.0;;;1.9;;
72161;SDS011;60047;51.644;5.842;2022-12-07T06:05:56;3.4;;;1.8;;
72161;SDS011;60047;51.644;5.842;2022-12-07T06:10:57;3.3;;;1.9;;
72161;SDS011;60047;51.644;5.842;2022-12-07T06:15:56;3.4;;;1.6;;
72161;SDS011;60047;51.644;5.842;2022-12-07T06:20:56;3.3;;;1.7;;
72161;SDS011;60047;51.644;5.842;2022-12-07T06:25:56;2.8;;;1.6;;
72161;SDS011;60047;51.644;5.842;2022-12-07T06:30:57;3.3;;;1.6;;
72161;SDS011;60047;51.644;5.842;2022-12-07T06:35:57;3.7;;;1.7;;
72161;SDS011;60047;51.644;5.842;2022-12-07T06:40:57;6.4;;;2.0;;
72161;SDS011;60047;51.644;5.842;2022-12-07T06:45:56;7.4;;;1.8;;
72161;SDS011;60047;51.644;5.842;2022-12-07T06:50:57;5.2;;;1.9;;
72161;SDS011;60047;51.644;5.842;2022-12-07T06:55:56;4.7;;;1.8;;
72161;SDS011;60047;51.644;5.842;2022-12-07T07:00:57;4.7;;;2.1;;
72161;SDS011;60047;51.644;5.842;2022-12-07T07:05:57;3.4;;;1.7;;
72161;SDS011;60047;51.644;5.842;2022-12-07T07:10:57;5.4;;;1.9;;
72161;SDS011;60047;51.644;5.842;2022-12-07T07:15:57;4.3;;;1.9;;
72161;SDS011;60047;51.644;5.842;2022-12-07T07:20:57;4.8;;;1.8;;
72161;SDS011;60047;51.644;5.842;2022-12-07T07:25:57;4.6;;;2.1;;
72161;SDS011;60047;51.644;5.842;2022-12-07T07:30:57;4.5;;;1.8;;
72161;SDS011;60047;51.644;5.842;2022-12-07T07:35:57;4.1;;;1.6;;
72161;SDS011;60047;51.644;5.842;2022-12-07T07:40:57;3.6;;;1.6;;
72161;SDS011;60047;51.644;5.842;2022-12-07T07:45:57;5.7;;;1.9;;
72161;SDS011;60047;51.644;5.842;2022-12-07T07:50:57;4.1;;;1.7;;
72161;SDS011;60047;51.644;5.842;2022-12-07T07:55:57;4.2;;;1.7;;
72161;SDS011;60047;51.644;5.842;2022-12-07T08:00:57;3.6;;;2.1;;
72161;SDS011;60047;51.644;5.842;2022-12-07T08:05:57;3.6;;;1.6;;
72161;SDS011;60047;51.644;5.842;2022-12-07T08:10:57;3.0;;;1.5;;
72161;SDS011;60047;51.644;5.842;2022-12-07T08:15:57;3.4;;;1.8;;
72161;SDS011;60047;51.644;5.842;2022-12-07T08:20:58;4.0;;;1.6;;
72161;SDS011;60047;51.644;5.842;2022-12-07T08:25:57;3.9;;;1.4;;
72161;SDS011;60047;51.644;5.842;2022-12-07T08:30:58;3.7;;;1.5;;
72161;SDS011;60047;51.644;5.842;2022-12-07T08:35:59;3.7;;;1.7;;
72161;SDS011;60047;51.644;5.842;2022-12-07T08:40:57;2.5;;;1.5;;
72161;SDS011;60047;51.644;5.842;2022-12-07T08:45:59;3.0;;;1.5;;
72161;SDS011;60047;51.644;5.842;2022-12-07T08:50:57;4.6;;;1.5;;
72161;SDS011;60047;51.644;5.842;2022-12-07T08:55:57;3.1;;;1.5;;
72161;SDS011;60047;51.644;5.842;2022-12-07T09:00:57;3.3;;;1.5;;
72161;SDS011;60047;51.644;5.842;2022-12-07T09:05:57;3.0;;;1.4;;
72161;SDS011;60047;51.644;5.842;2022-12-07T09:10:58;3.1;;;1.5;;
72161;SDS011;60047;51.644;5.842;2022-12-07T09:15:57;5.3;;;1.9;;
72161;SDS011;60047;51.644;5.842;2022-12-07T09:20:57;3.1;;;1.5;;
72161;SDS011;60047;51.644;5.842;2022-12-07T09:25:58;3.7;;;1.5;;
72161;SDS011;60047;51.644;5.842;2022-12-07T09:30:57;3.1;;;1.5;;
72161;SDS011;60047;51.644;5.842;2022-12-07T09:35:57;3.2;;;1.5;;
72161;SDS011;60047;51.644;5.842;2022-12-07T09:40:57;3.4;;;1.4;;
72161;SDS011;60047;51.644;5.842;2022-12-07T09:45:57;2.8;;;1.7;;
72161;SDS011;60047;51.644;5.842;2022-12-07T09:50:57;3.3;;;1.8;;
72161;SDS011;60047;51.644;5.842;2022-12-07T09:55:57;2.9;;;1.4;;
72161;SDS011;60047;51.644;5.842;2022-12-07T10:00:59;2.7;;;1.4;;
72161;SDS011;60047;51.644;5.842;2022-12-07T10:05:57;3.6;;;1.4;;
72161;SDS011;60047;51.644;5.842;2022-12-07T10:10:57;2.6;;;1.3;;
72161;SDS011;60047;51.644;5.842;2022-12-07T10:15:57;2.8;;;1.3;;
72161;SDS011;60047;51.644;5.842;2022-12-07T10:21:03;3.4;;;1.4;;
72161;SDS011;60047;51.644;5.842;2022-12-07T10:25:57;2.5;;;1.4;;
72161;SDS011;60047;51.644;5.842;2022-12-07T10:30:59;2.6;;;1.3;;
72161;SDS011;60047;51.644;5.842;2022-12-07T10:35:57;3.4;;;1.7;;
72161;SDS011;60047;51.644;5.842;2022-12-07T10:41:05;2.2;;;1.4;;
72161;SDS011;60047;51.644;5.842;2022-12-07T10:46:41;2.6;;;1.3;;
72161;SDS011;60047;51.644;5.842;2022-12-07T10:51:41;3.4;;;1.4;;
72161;SDS011;60047;51.644;5.842;2022-12-07T10:56:57;2.7;;;1.2;;
72161;SDS011;60047;51.644;5.842;2022-12-07T11:01:18;2.2;;;1.2;;
72161;SDS011;60047;51.644;5.842;2022-12-07T11:06:52;4.3;;;1.7;;
72161;SDS011;60047;51.644;5.842;2022-12-07T11:12:10;2.2;;;1.4;;
72161;SDS011;60047;51.644;5.842;2022-12-07T11:16:56;2.7;;;1.5;;
72161;SDS011;60047;51.644;5.842;2022-12-07T11:21:21;2.8;;;1.4;;
72161;SDS011;60047;51.644;5.842;2022-12-07T11:26:18;2.3;;;1.4;;
72161;SDS011;60047;51.644;5.842;2022-12-07T11:31:35;3.0;;;1.3;;
72161;SDS011;60047;51.644;5.842;2022-12-07T11:36:32;2.2;;;1.1;;
72161;SDS011;60047;51.644;5.842;2022-12-07T11:40:58;2.6;;;1.3;;
72161;SDS011;60047;51.644;5.842;2022-12-07T11:46:02;2.2;;;1.4;;
72161;SDS011;60047;51.644;5.842;2022-12-07T11:50:58;2.0;;;1.3;;
72161;SDS011;60047;51.644;5.842;2022-12-07T11:56:06;2.1;;;1.1;;
72161;SDS011;60047;51.644;5.842;2022-12-07T12:01:13;1.9;;;1.1;;
72161;SDS011;60047;51.644;5.842;2022-12-07T12:05:58;1.5;;;1.0;;
72161;SDS011;60047;51.644;5.842;2022-12-07T12:11:03;2.5;;;1.1;;
72161;SDS011;60047;51.644;5.842;2022-12-07T12:17:36;2.2;;;1.1;;
72161;SDS011;60047;51.644;5.842;2022-12-07T12:21:31;2.6;;;1.1;;
72161;SDS011;60047;51.644;5.842;2022-12-07T12:25:58;2.0;;;1.2;;
72161;SDS011;60047;51.644;5.842;2022-12-07T12:31:11;1.8;;;1.1;;
72161;SDS011;60047;51.644;5.842;2022-12-07T12:36:45;2.3;;;1.2;;
72161;SDS011;60047;51.644;5.842;2022-12-07T12:40:57;3.0;;;0.9;;
72161;SDS011;60047;51.644;5.842;2022-12-07T12:46:37;2.9;;;1.1;;
72161;SDS011;60047;51.644;5.842;2022-12-07T12:51:38;2.0;;;1.1;;
72161;SDS011;60047;51.644;5.842;2022-12-07T12:56:39;2.0;;;1.3;;
72161;SDS011;60047;51.644;5.842;2022-12-07T13:06:32;1.7;;;0.9;;
72161;SDS011;60047;51.644;5.842;2022-12-07T13:11:17;2.0;;;1.0;;
72161;SDS011;60047;51.644;5.842;2022-12-07T13:20:58;2.4;;;1.1;;
72161;SDS011;60047;51.644;5.842;2022-12-07T13:25:59;1.8;;;0.9;;
72161;SDS011;60047;51.644;5.842;2022-12-07T13:31:04;1.5;;;1.0;;
72161;SDS011;60047;51.644;5.842;2022-12-07T13:35:58;2.2;;;1.0;;
72161;SDS011;60047;51.644;5.842;2022-12-07T13:41:16;1.6;;;1.0;;
72161;SDS011;60047;51.644;5.842;2022-12-07T13:45:59;1.8;;;1.1;;
72161;SDS011;60047;51.644;5.842;2022-12-07T13:50:58;1.9;;;1.2;;
72161;SDS011;60047;51.644;5.842;2022-12-07T13:55:58;2.4;;;1.0;;
72161;SDS011;60047;51.644;5.842;2022-12-07T14:00:58;1.6;;;1.0;;
72161;SDS011;60047;51.644;5.842;2022-12-07T14:06:07;1.4;;;0.8;;
72161;SDS011;60047;51.644;5.842;2022-12-07T14:11:00;2.3;;;1.3;;
72161;SDS011;60047;51.644;5.842;2022-12-07T14:15:58;1.6;;;0.8;;
72161;SDS011;60047;51.644;5.842;2022-12-07T14:21:05;1.4;;;1.0;;
72161;SDS011;60047;51.644;5.842;2022-12-07T14:26:04;1.7;;;0.9;;
72161;SDS011;60047;51.644;5.842;2022-12-07T14:30:58;2.1;;;0.9;;
72161;SDS011;60047;51.644;5.842;2022-12-07T14:35:58;1.5;;;0.8;;
72161;SDS011;60047;51.644;5.842;2022-12-07T14:40:58;1.9;;;0.8;;
72161;SDS011;60047;51.644;5.842;2022-12-07T14:45:58;2.0;;;0.8;;
72161;SDS011;60047;51.644;5.842;2022-12-07T14:55:58;2.1;;;0.8;;
72161;SDS011;60047;51.644;5.842;2022-12-07T15:00:58;2.8;;;1.0;;
72161;SDS011;60047;51.644;5.842;2022-12-07T15:05:58;2.5;;;1.0;;
72161;SDS011;60047;51.644;5.842;2022-12-07T15:10:58;1.9;;;0.9;;
72161;SDS011;60047;51.644;5.842;2022-12-07T15:15:58;1.8;;;0.9;;
72161;SDS011;60047;51.644;5.842;2022-12-07T15:20:58;1.4;;;0.7;;
72161;SDS011;60047;51.644;5.842;2022-12-07T15:25:58;1.8;;;0.8;;
72161;SDS011;60047;51.644;5.842;2022-12-07T15:30:58;1.2;;;0.7;;
72161;SDS011;60047;51.644;5.842;2022-12-07T15:35:58;1.7;;;0.8;;
72161;SDS011;60047;51.644;5.842;2022-12-07T15:40:58;1.5;;;0.6;;
72161;SDS011;60047;51.644;5.842;2022-12-07T15:45:59;1.3;;;0.7;;
72161;SDS011;60047;51.644;5.842;2022-12-07T15:51:01;1.1;;;0.7;;
72161;SDS011;60047;51.644;5.842;2022-12-07T15:55:58;1.6;;;0.9;;
72161;SDS011;60047;51.644;5.842;2022-12-07T16:00:58;1.4;;;0.7;;
72161;SDS011;60047;51.644;5.842;2022-12-07T16:05:58;1.6;;;0.9;;
72161;SDS011;60047;51.644;5.842;2022-12-07T16:10:58;1.4;;;0.6;;
72161;SDS011;60047;51.644;5.842;2022-12-07T16:16:01;1.6;;;1.1;;
72161;SDS011;60047;51.644;5.842;2022-12-07T16:20:58;1.6;;;0.9;;
72161;SDS011;60047;51.644;5.842;2022-12-07T16:26:03;1.4;;;0.7;;
72161;SDS011;60047;51.644;5.842;2022-12-07T16:30:59;1.8;;;0.8;;
72161;SDS011;60047;51.644;5.842;2022-12-07T16:35:58;1.8;;;0.7;;
72161;SDS011;60047;51.644;5.842;2022-12-07T16:40:58;1.6;;;0.7;;
72161;SDS011;60047;51.644;5.842;2022-12-07T16:45:58;1.2;;;0.6;;
72161;SDS011;60047;51.644;5.842;2022-12-07T16:50:58;1.6;;;0.7;;
72161;SDS011;60047;51.644;5.842;2022-12-07T16:55:58;1.6;;;0.7;;
72161;SDS011;60047;51.644;5.842;2022-12-07T17:00:58;1.1;;;0.6;;
72161;SDS011;60047;51.644;5.842;2022-12-07T17:05:58;1.9;;;0.9;;
72161;SDS011;60047;51.644;5.842;2022-12-07T17:10:58;1.5;;;0.7;;
72161;SDS011;60047;51.644;5.842;2022-12-07T17:15:59;3.0;;;0.8;;
72161;SDS011;60047;51.644;5.842;2022-12-07T17:21:01;1.5;;;0.9;;
72161;SDS011;60047;51.644;5.842;2022-12-07T17:26:03;2.6;;;1.0;;
72161;SDS011;60047;51.644;5.842;2022-12-07T17:30:58;2.4;;;0.7;;
72161;SDS011;60047;51.644;5.842;2022-12-07T17:35:58;1.9;;;0.9;;
72161;SDS011;60047;51.644;5.842;2022-12-07T17:40:58;2.2;;;0.9;;
72161;SDS011;60047;51.644;5.842;2022-12-07T17:45:58;3.2;;;1.0;;
72161;SDS011;60047;51.644;5.842;2022-12-07T17:50:58;1.7;;;0.8;;
72161;SDS011;60047;51.644;5.842;2022-12-07T17:55:58;1.8;;;1.0;;
72161;SDS011;60047;51.644;5.842;2022-12-07T18:00:58;1.6;;;0.9;;
72161;SDS011;60047;51.644;5.842;2022-12-07T18:05:58;2.0;;;0.9;;
72161;SDS011;60047;51.644;5.842;2022-12-07T18:10:59;2.1;;;1.0;;
72161;SDS011;60047;51.644;5.842;2022-12-07T18:15:58;1.7;;;0.7;;
72161;SDS011;60047;51.644;5.842;2022-12-07T18:21:01;2.0;;;0.8;;
72161;SDS011;60047;51.644;5.842;2022-12-07T18:25:59;1.9;;;0.8;;
72161;SDS011;60047;51.644;5.842;2022-12-07T18:30:59;2.3;;;0.8;;
72161;SDS011;60047;51.644;5.842;2022-12-07T18:35:59;2.3;;;0.9;;
72161;SDS011;60047;51.644;5.842;2022-12-07T18:40:59;1.5;;;0.8;;
72161;SDS011;60047;51.644;5.842;2022-12-07T18:45:58;1.5;;;0.9;;
72161;SDS011;60047;51.644;5.842;2022-12-07T18:51:02;1.6;;;0.7;;
72161;SDS011;60047;51.644;5.842;2022-12-07T18:56:00;2.0;;;1.0;;
72161;SDS011;60047;51.644;5.842;2022-12-07T19:00:58;2.2;;;0.8;;
72161;SDS011;60047;51.644;5.842;2022-12-07T19:05:59;1.4;;;0.8;;
72161;SDS011;60047;51.644;5.842;2022-12-07T19:10:59;3.4;;;0.9;;
72161;SDS011;60047;51.644;5.842;2022-12-07T19:15:58;1.3;;;0.8;;
72161;SDS011;60047;51.644;5.842;2022-12-07T19:20:58;1.4;;;0.8;;
72161;SDS011;60047;51.644;5.842;2022-12-07T19:25:58;2.3;;;0.8;;
72161;SDS011;60047;51.644;5.842;2022-12-07T19:30:59;1.3;;;0.7;;
72161;SDS011;60047;51.644;5.842;2022-12-07T19:35:59;2.1;;;0.7;;
72161;SDS011;60047;51.644;5.842;2022-12-07T19:41:02;1.4;;;0.8;;
72161;SDS011;60047;51.644;5.842;2022-12-07T19:46:02;2.1;;;0.8;;
72161;SDS011;60047;51.644;5.842;2022-12-07T19:51:01;1.5;;;0.8;;
72161;SDS011;60047;51.644;5.842;2022-12-07T19:55:59;1.7;;;0.8;;
72161;SDS011;60047;51.644;5.842;2022-12-07T20:01:01;1.8;;;0.8;;
72161;SDS011;60047;51.644;5.842;2022-12-07T20:05:59;1.7;;;0.8;;
72161;SDS011;60047;51.644;5.842;2022-12-07T20:10:59;1.5;;;0.7;;
72161;SDS011;60047;51.644;5.842;2022-12-07T20:16:02;2.4;;;0.8;;
72161;SDS011;60047;51.644;5.842;2022-12-07T20:20:59;1.8;;;0.8;;
72161;SDS011;60047;51.644;5.842;2022-12-07T20:26:00;1.2;;;0.8;;
72161;SDS011;60047;51.644;5.842;2022-12-07T20:30:59;1.8;;;0.8;;
72161;SDS011;60047;51.644;5.842;2022-12-07T20:35:59;1.6;;;0.8;;
72161;SDS011;60047;51.644;5.842;2022-12-07T20:41:02;1.4;;;0.7;;
72161;SDS011;60047;51.644;5.842;2022-12-07T20:45:59;2.0;;;0.7;;
72161;SDS011;60047;51.644;5.842;2022-12-07T20:51:03;2.8;;;0.8;;
72161;SDS011;60047;51.644;5.842;2022-12-07T20:55:59;2.1;;;1.0;;
72161;SDS011;60047;51.644;5.842;2022-12-07T21:00:59;1.9;;;0.9;;
72161;SDS011;60047;51.644;5.842;2022-12-07T21:06:00;1.9;;;0.9;;
72161;SDS011;60047;51.644;5.842;2022-12-07T21:11:00;1.8;;;0.8;;
72161;SDS011;60047;51.644;5.842;2022-12-07T21:15:59;2.4;;;0.8;;
72161;SDS011;60047;51.644;5.842;2022-12-07T21:21:00;1.9;;;0.7;;
72161;SDS011;60047;51.644;5.842;2022-12-07T21:25:59;1.2;;;0.7;;
72161;SDS011;60047;51.644;5.842;2022-12-07T21:30:59;2.4;;;0.8;;
72161;SDS011;60047;51.644;5.842;2022-12-07T21:35:59;2.1;;;1.0;;
72161;SDS011;60047;51.644;5.842;2022-12-07T21:40:59;1.7;;;1.1;;
72161;SDS011;60047;51.644;5.842;2022-12-07T21:45:59;1.3;;;0.7;;
72161;SDS011;60047;51.644;5.842;2022-12-07T21:51:03;3.6;;;1.4;;
72161;SDS011;60047;51.644;5.842;2022-12-07T21:55:59;2.3;;;1.1;;
72161;SDS011;60047;51.644;5.842;2022-12-07T22:00:59;3.3;;;1.2;;
72161;SDS011;60047;51.644;5.842;2022-12-07T22:05:59;8.9;;;1.9;;
72161;SDS011;60047;51.644;5.842;2022-12-07T22:10:59;99.4;;;19.1;;
72161;SDS011;60047;51.644;5.842;2022-12-07T22:15:59;85.6;;;19.2;;
72161;SDS011;60047;51.644;5.842;2022-12-07T22:20:59;75.3;;;17.4;;
72161;SDS011;60047;51.644;5.842;2022-12-07T22:26:03;76.0;;;17.5;;
72161;SDS011;60047;51.644;5.842;2022-12-07T22:31:01;83.5;;;18.7;;
72161;SDS011;60047;51.644;5.842;2022-12-07T22:35:59;79.3;;;17.1;;
72161;SDS011;60047;51.644;5.842;2022-12-07T22:40:59;68.4;;;17.3;;
72161;SDS011;60047;51.644;5.842;2022-12-07T22:45:59;73.5;;;16.9;;
72161;SDS011;60047;51.644;5.842;2022-12-07T22:50:59;74.7;;;17.5;;
72161;SDS011;60047;51.644;5.842;2022-12-07T22:55:59;65.3;;;16.0;;
72161;SDS011;60047;51.644;5.842;2022-12-07T23:01:05;62.9;;;15.6;;
72161;SDS011;60047;51.644;5.842;2022-12-07T23:06:04;58.8;;;15.7;;
72161;SDS011;60047;51.644;5.842;2022-12-07T23:10:59;59.9;;;15.5;;
72161;SDS011;60047;51.644;5.842;2022-12-07T23:16:00;55.1;;;14.7;;
72161;SDS011;60047;51.644;5.842;2022-12-07T23:20:59;56.5;;;14.8;;
72161;SDS011;60047;51.644;5.842;2022-12-07T23:26:02;57.9;;;16.3;;
72161;SDS011;60047;51.644;5.842;2022-12-07T23:31:00;51.8;;;15.4;;
72161;SDS011;60047;51.644;5.842;2022-12-07T23:36:05;51.8;;;14.1;;
72161;SDS011;60047;51.644;5.842;2022-12-07T23:41:02;44.4;;;14.1;;
72161;SDS011;60047;51.644;5.842;2022-12-07T23:45:59;45.5;;;13.6;;
72161;SDS011;60047;51.644;5.842;2022-12-07T23:50:59;48.1;;;14.2;;
72161;SDS011;60047;51.644;5.842;2022-12-07T23:55:59;47.8;;;13.7;;
